Time;durP1;ratioP1;P1;durP2;ratioP2;P2;SDS_P1;SDS_P2;PMS_P1;PMS_P2;Temp;Humidity;BMP_temperature;BMP_pressure;BME280_temperature;BME280_humidity;BME280_pressure;Samples;Min_cycle;Max_cycle;Signal;HPM_P1;HPM_P2
2022/05/04 00:01:10;;;;;;;1.17;0.68;;;0.70;80.30;;;;;;4973894;28;20463;-73
2022/05/04 00:03:39;;;;;;;0.95;0.65;;;0.60;80.90;;;;;;4973118;28;20025;-73
2022/05/04 00:06:09;;;;;;;0.55;0.55;;;0.50;81.40;;;;;;4956552;28;20029;-73
2022/05/04 00:08:35;;;;;;;0.60;0.60;;;0.50;81.80;;;;;;4973071;28;20033;-73
2022/05/04 00:11:02;;;;;;;1.13;0.60;;;0.50;82.30;;;;;;4973557;28;20054;-73
2022/05/04 00:13:28;;;;;;;1.75;0.60;;;0.40;82.40;;;;;;4972892;28;20062;-73
2022/05/04 00:15:54;;;;;;;1.20;0.70;;;0.40;82.90;;;;;;4973095;28;20035;-73
2022/05/04 00:18:20;;;;;;;0.75;0.75;;;0.40;83.10;;;;;;4972929;28;20065;-73
2022/05/04 00:20:46;;;;;;;0.70;0.70;;;0.40;83.40;;;;;;4973117;28;20035;-73
2022/05/04 00:23:11;;;;;;;1.38;0.70;;;0.50;83.60;;;;;;4973087;28;20367;-73
2022/05/04 00:25:37;;;;;;;0.77;0.77;;;0.40;83.60;;;;;;4955535;28;20033;-73
2022/05/04 00:28:04;;;;;;;1.50;0.63;;;0.40;83.90;;;;;;4973012;28;20039;-73
2022/05/04 00:30:31;;;;;;;0.70;0.60;;;0.40;84.10;;;;;;4972983;28;20062;-71
2022/05/04 00:32:58;;;;;;;1.80;0.75;;;0.50;83.80;;;;;;4972954;28;20466;-71
2022/05/04 00:35:23;;;;;;;1.30;0.63;;;0.50;83.30;;;;;;4972777;28;20035;-71
2022/05/04 00:37:49;;;;;;;0.63;0.63;;;0.50;83.10;;;;;;4972881;28;20407;-70
2022/05/04 00:40:15;;;;;;;1.00;0.80;;;0.50;83.00;;;;;;4974941;28;20194;-71
2022/05/04 00:42:41;;;;;;;1.13;0.70;;;0.50;82.90;;;;;;4976685;28;20441;-71
2022/05/04 00:45:07;;;;;;;1.63;0.75;;;0.50;83.10;;;;;;4959881;28;20031;-71
2022/05/04 00:47:32;;;;;;;0.93;0.80;;;0.40;84.00;;;;;;4976553;28;20402;-72
2022/05/04 00:50:04;;;;;;;0.60;0.60;;;0.30;84.90;;;;;;4976754;28;20035;-72
2022/05/04 00:52:32;;;;;;;2.13;0.80;;;0.20;85.70;;;;;;4976569;28;20536;-72
2022/05/04 00:54:59;;;;;;;1.23;0.60;;;0.20;86.50;;;;;;4976598;28;20162;-72
2022/05/04 01:00:11;;;;;;;0.68;0.68;;;0.20;87.50;;;;;;4976954;28;20030;-73
2022/05/04 01:02:38;;;;;;;0.60;0.60;;;0.10;88.00;;;;;;4976391;28;20036;-72
2022/05/04 01:05:05;;;;;;;1.05;0.70;;;0.10;88.20;;;;;;4976482;28;20027;-72
2022/05/04 01:07:31;;;;;;;1.40;0.90;;;0.10;89.00;;;;;;4976428;28;20038;-72
2022/05/04 01:09:57;;;;;;;0.93;0.70;;;0.10;89.20;;;;;;4976492;28;20422;-72
2022/05/04 01:12:23;;;;;;;1.75;0.65;;;0.10;90.20;;;;;;4976151;28;20015;-72
2022/05/04 01:14:49;;;;;;;1.88;0.98;;;0.10;90.10;;;;;;4976492;28;20125;-73
2022/05/04 01:17:15;;;;;;;0.80;0.80;;;0.00;90.10;;;;;;4976259;28;20539;-73
2022/05/04 01:19:40;;;;;;;0.80;0.60;;;0.00;90.20;;;;;;4976129;28;20025;-72
2022/05/04 01:22:06;;;;;;;2.03;0.80;;;0.00;90.50;;;;;;4976431;28;20034;-72
2022/05/04 01:24:32;;;;;;;0.85;0.70;;;0.00;90.60;;;;;;4976044;28;20510;-73
2022/05/04 01:26:57;;;;;;;1.65;0.80;;;0.00;90.80;;;;;;4976330;28;20022;-72
2022/05/04 01:29:23;;;;;;;1.40;0.80;;;-0.10;91.00;;;;;;4975970;28;20065;-72
2022/05/04 01:31:49;;;;;;;0.70;0.70;;;-0.10;91.40;;;;;;4976313;28;20623;-72
2022/05/04 01:34:14;;;;;;;1.00;0.90;;;-0.10;91.50;;;;;;4976173;28;20031;-72
2022/05/04 01:36:40;;;;;;;0.70;0.70;;;-0.20;91.80;;;;;;4975647;28;20134;-72
2022/05/04 01:39:06;;;;;;;2.35;0.80;;;-0.10;92.10;;;;;;4975649;28;20050;-72
2022/05/04 01:44:16;;;;;;;0.70;0.70;;;-0.20;92.60;;;;;;4975842;28;20041;-73
2022/05/04 01:46:41;;;;;;;2.75;0.90;;;-0.20;92.80;;;;;;4975587;28;20094;-72
2022/05/04 01:49:07;;;;;;;6.93;0.80;;;-0.30;93.20;;;;;;4975833;28;20026;-72
2022/05/04 01:51:33;;;;;;;1.30;0.80;;;-0.20;93.30;;;;;;4975452;28;20117;-72
2022/05/04 01:53:59;;;;;;;1.52;0.80;;;-0.20;93.30;;;;;;4975589;28;20479;-73
2022/05/04 01:56:24;;;;;;;1.55;0.70;;;-0.30;93.70;;;;;;4975393;28;20105;-73
2022/05/04 01:58:50;;;;;;;1.55;0.80;;;-0.30;94.10;;;;;;4972586;28;20051;-72
2022/05/04 02:01:16;;;;;;;0.57;0.50;;;-0.30;94.30;;;;;;4957178;28;20027;-73
2022/05/04 02:03:42;;;;;;;0.85;0.75;;;-0.40;94.60;;;;;;4956076;29;20415;-72
2022/05/04 02:06:08;;;;;;;1.08;0.98;;;-0.30;94.50;;;;;;4956243;29;20043;-73
2022/05/04 02:08:35;;;;;;;3.13;0.63;;;-0.30;94.70;;;;;;4955879;29;20031;-73
2022/05/04 02:11:00;;;;;;;1.85;0.70;;;-0.30;94.90;;;;;;4955968;29;20042;-71
2022/05/04 02:13:26;;;;;;;0.75;0.73;;;-0.40;95.00;;;;;;4956000;29;20048;-73
2022/05/04 02:15:52;;;;;;;1.38;1.00;;;-0.40;95.20;;;;;;4955861;29;20051;-72
2022/05/04 02:18:17;;;;;;;3.33;0.80;;;-0.40;95.40;;;;;;4955781;29;20019;-73
2022/05/04 02:20:43;;;;;;;3.10;0.70;;;-0.40;95.30;;;;;;4956037;29;20034;-73
2022/05/04 02:23:09;;;;;;;1.13;0.90;;;-0.40;95.70;;;;;;4955765;29;20082;-73
2022/05/04 02:52:13;;;;;;;1.83;0.95;;;-0.50;97.80;;;;;;4972398;28;20051;-72
2022/05/04 02:54:39;;;;;;;2.00;0.75;;;-0.50;97.60;;;;;;4955262;29;20046;-73
2022/05/04 02:57:05;;;;;;;0.98;0.90;;;-0.50;98.00;;;;;;4955159;29;20031;-73
2022/05/04 02:59:30;;;;;;;0.80;0.80;;;-0.50;98.00;;;;;;4954882;29;20035;-73
2022/05/04 03:38:20;;;;;;;1.10;0.65;;;2.50;88.50;;;;;;5325297;23;20055;-68
2022/05/04 03:40:45;;;;;;;2.95;0.70;;;2.80;87.00;;;;;;4973714;28;20042;-68
2022/05/04 03:43:11;;;;;;;2.63;0.70;;;3.00;85.40;;;;;;4973749;28;20520;-68
2022/05/04 03:45:37;;;;;;;1.00;0.80;;;3.30;84.40;;;;;;4973536;28;20580;-68
2022/05/04 03:48:02;;;;;;;1.58;0.70;;;3.50;82.80;;;;;;4973542;28;20034;-68
2022/05/04 03:50:28;;;;;;;1.75;0.50;;;3.70;81.70;;;;;;4973409;28;20122;-68
2022/05/04 03:52:54;;;;;;;2.30;0.85;;;4.00;80.70;;;;;;4973545;28;20099;-69
2022/05/04 03:55:19;;;;;;;3.00;0.63;;;4.20;79.20;;;;;;4956109;28;20031;-68
2022/05/04 03:57:45;;;;;;;3.63;0.80;;;4.50;78.30;;;;;;4973643;28;20031;-69
2022/05/04 04:00:11;;;;;;;1.73;0.57;;;4.70;76.90;;;;;;4973408;28;20038;-68
2022/05/04 04:02:37;;;;;;;5.20;0.93;;;5.00;75.60;;;;;;4973586;28;20419;-69
2022/05/04 04:05:03;;;;;;;1.73;0.63;;;5.20;74.80;;;;;;4973498;28;20022;-69
2022/05/04 04:07:28;;;;;;;2.05;0.68;;;5.50;74.10;;;;;;4973499;28;20478;-69
2022/05/04 04:09:54;;;;;;;2.08;0.82;;;5.70;72.50;;;;;;4973484;28;20027;-69
2022/05/04 04:12:20;;;;;;;7.07;0.90;;;5.90;71.80;;;;;;4973283;28;20025;-69
2022/05/04 04:14:45;;;;;;;2.15;0.45;;;6.00;70.40;;;;;;4972799;28;20070;-68
2022/05/04 04:17:11;;;;;;;2.83;0.60;;;6.20;69.60;;;;;;4973203;28;20129;-68
2022/05/04 04:19:37;;;;;;;3.90;0.90;;;6.40;69.10;;;;;;4973318;28;20023;-68
2022/05/04 04:22:02;;;;;;;6.50;0.70;;;6.50;68.50;;;;;;4973254;28;20026;-69
2022/05/04 04:24:28;;;;;;;3.75;0.60;;;6.80;68.30;;;;;;4973129;28;20026;-69
2022/05/04 04:26:54;;;;;;;2.67;0.70;;;7.00;66.40;;;;;;4973305;28;20487;-68
2022/05/04 04:29:20;;;;;;;1.00;0.50;;;7.20;66.40;;;;;;4972888;28;20033;-69
2022/05/04 04:31:46;;;;;;;0.52;0.50;;;7.50;65.10;;;;;;4973090;28;20557;-71
2022/05/04 04:34:12;;;;;;;4.05;0.60;;;7.80;64.90;;;;;;4972897;28;20027;-71
2022/05/04 04:36:38;;;;;;;7.72;0.70;;;7.90;63.20;;;;;;4972727;28;20093;-77
2022/05/04 04:39:04;;;;;;;9.63;0.82;;;8.20;62.10;;;;;;4972676;28;20043;-72
2022/05/04 04:41:31;;;;;;;6.25;0.80;;;9.30;77.80;;;;;;4972845;28;20064;-76
2022/05/04 04:43:56;;;;;;;3.97;0.70;;;9.90;61.50;;;;;;4972804;28;20031;-67
2022/05/04 04:46:22;;;;;;;5.30;0.80;;;9.60;58.80;;;;;;4985367;28;20032;-67
2022/05/04 04:48:48;;;;;;;2.67;0.52;;;9.40;58.80;;;;;;4974833;28;20030;-67
2022/05/04 04:51:14;;;;;;;6.07;0.60;;;9.30;57.80;;;;;;4992215;28;20385;-67
2022/05/04 04:53:39;;;;;;;2.58;0.60;;;9.30;58.40;;;;;;4991889;28;20378;-68
2022/05/04 04:56:06;;;;;;;10.57;1.00;;;9.30;58.00;;;;;;4991099;28;20045;-68
2022/05/04 04:58:32;;;;;;;3.45;0.70;;;9.50;58.00;;;;;;4991044;28;20038;-67
2022/05/04 05:00:58;;;;;;;5.95;0.80;;;9.70;57.00;;;;;;4990944;28;20030;-66
2022/05/04 05:03:23;;;;;;;0.75;0.40;;;9.80;56.50;;;;;;4988461;28;20030;-67
2022/05/04 05:05:49;;;;;;;8.20;0.77;;;9.80;55.70;;;;;;4991250;28;20027;-69
2022/05/04 05:08:14;;;;;;;6.90;0.70;;;9.90;56.00;;;;;;4991874;28;20030;-67
2022/05/04 05:10:40;;;;;;;1.75;0.50;;;10.00;55.20;;;;;;4992152;28;20076;-70
2022/05/04 05:13:06;;;;;;;2.53;0.60;;;10.00;55.40;;;;;;4992291;28;20499;-70
2022/05/04 05:18:24;;;;;;;1.77;0.47;;;10.60;55.00;;;;;;4993672;28;20080;-72
2022/05/04 05:20:50;;;;;;;6.10;0.80;;;10.70;53.50;;;;;;4991715;28;20128;-72
2022/05/04 05:23:16;;;;;;;3.58;0.80;;;10.70;53.60;;;;;;4990935;28;20486;-72
2022/05/04 05:25:41;;;;;;;2.38;0.60;;;10.90;53.30;;;;;;4992508;28;20070;-72
2022/05/04 05:28:07;;;;;;;12.82;1.00;;;10.90;52.90;;;;;;4995725;28;20022;-72
2022/05/04 05:30:33;;;;;;;0.93;0.50;;;11.00;51.70;;;;;;4995386;28;20401;-72
2022/05/04 05:32:59;;;;;;;4.07;0.60;;;11.00;51.60;;;;;;4994818;28;20061;-72
2022/05/04 05:35:24;;;;;;;6.32;0.57;;;11.20;51.30;;;;;;4995210;28;20030;-68
2022/05/04 05:37:50;;;;;;;4.68;0.80;;;11.30;50.90;;;;;;4995066;28;20058;-67
2022/05/04 05:40:16;;;;;;;1.85;0.50;;;11.40;50.90;;;;;;4995527;28;20019;-71
2022/05/04 05:42:41;;;;;;;1.45;0.40;;;11.50;50.30;;;;;;4994381;28;20034;-78
2022/05/04 05:45:08;;;;;;;1.30;0.43;;;11.60;50.00;;;;;;4994882;28;20058;-78
2022/05/04 05:47:33;;;;;;;3.50;0.60;;;11.60;49.90;;;;;;4994966;28;20499;-79
2022/05/04 05:49:59;;;;;;;3.55;0.50;;;11.80;49.90;;;;;;4995496;28;20110;-79
2022/05/04 05:52:26;;;;;;;0.88;0.47;;;12.00;49.50;;;;;;4995087;28;20363;-79
2022/05/04 05:54:51;;;;;;;3.08;0.45;;;12.00;48.70;;;;;;4994904;28;20030;-79
2022/05/04 05:57:17;;;;;;;11.70;0.70;;;12.00;48.70;;;;;;4994846;28;20089;-78
2022/05/04 05:59:43;;;;;;;2.40;0.50;;;11.90;48.60;;;;;;4995089;28;20028;-80
2022/05/04 06:02:08;;;;;;;4.47;0.50;;;12.00;48.60;;;;;;4994833;28;20089;-72
2022/05/04 06:04:34;;;;;;;3.05;0.60;;;12.10;48.30;;;;;;4988941;28;20057;-77
2022/05/04 06:07:00;;;;;;;27.88;1.77;;;12.00;47.80;;;;;;4975304;28;20031;-72
2022/05/04 06:09:25;;;;;;;2.72;0.52;;;12.00;50.40;;;;;;4975407;28;20090;-73
2022/05/04 06:11:54;;;;;;;3.38;0.57;;;12.00;49.10;;;;;;4984756;28;20089;-74
2022/05/04 06:14:20;;;;;;;9.50;0.85;;;12.10;49.00;;;;;;4988449;28;20030;-75
2022/05/04 06:16:46;;;;;;;1.42;0.52;;;12.20;48.30;;;;;;4993199;28;20065;-74
2022/05/04 06:19:13;;;;;;;1.00;0.50;;;12.20;47.60;;;;;;4994085;28;20014;-73
2022/05/04 06:21:39;;;;;;;1.23;0.45;;;12.00;47.70;;;;;;4994049;28;20034;-81
2022/05/04 06:24:05;;;;;;;3.42;0.47;;;12.00;47.70;;;;;;4994311;28;20033;-73
2022/05/04 06:26:31;;;;;;;2.95;0.60;;;11.90;47.70;;;;;;4993857;28;20042;-76
2022/05/04 06:28:57;;;;;;;0.80;0.45;;;12.00;47.80;;;;;;4994102;28;20026;-76
2022/05/04 06:34:06;;;;;;;1.88;0.50;;;12.10;47.40;;;;;;4994179;28;20053;-74
2022/05/04 06:36:33;;;;;;;0.82;0.40;;;12.10;47.10;;;;;;4993381;28;20030;-75
2022/05/04 06:38:59;;;;;;;0.90;0.50;;;12.10;46.90;;;;;;4993185;28;20125;-75
2022/05/04 06:41:24;;;;;;;2.83;0.63;;;12.30;47.10;;;;;;4993329;28;20430;-77
2022/05/04 06:43:50;;;;;;;11.27;1.38;;;12.10;46.70;;;;;;4992450;28;20022;-72
2022/05/04 06:46:16;;;;;;;1.13;0.40;;;12.10;46.70;;;;;;4993712;28;20028;-74
2022/05/04 06:48:42;;;;;;;1.90;0.40;;;12.10;46.50;;;;;;4992900;28;20029;-76
2022/05/04 06:51:08;;;;;;;1.52;0.70;;;11.80;46.50;;;;;;4992047;28;20026;-74
2022/05/04 06:53:33;;;;;;;0.88;0.60;;;11.90;53.60;;;;;;4992052;28;20022;-76
2022/05/04 06:56:00;;;;;;;3.85;0.70;;;12.90;60.30;;;;;;4993490;28;20041;-77
2022/05/04 06:58:25;;;;;;;1.30;0.50;;;13.60;58.40;;;;;;4974778;28;20460;-71
2022/05/04 07:00:51;;;;;;;1.10;0.40;;;14.10;58.60;;;;;;4992692;28;20038;-74
2022/05/04 07:03:17;;;;;;;1.48;0.35;;;14.50;57.60;;;;;;4993675;28;20023;-79
2022/05/04 07:05:43;;;;;;;1.10;0.38;;;14.80;57.90;;;;;;4992734;28;20458;-80
2022/05/04 07:08:09;;;;;;;1.15;0.50;;;15.00;54.80;;;;;;4993094;28;20025;-81
2022/05/04 07:10:35;;;;;;;2.13;0.50;;;14.20;45.70;;;;;;4993345;28;20030;-78
2022/05/04 07:13:01;;;;;;;0.60;0.30;;;13.20;47.50;;;;;;4984084;28;20034;-79
2022/05/04 07:15:26;;;;;;;1.38;0.30;;;12.80;49.10;;;;;;4982719;28;20077;-80
2022/05/04 07:17:52;;;;;;;2.60;0.40;;;12.30;47.30;;;;;;4982788;28;20030;-81
2022/05/04 07:20:18;;;;;;;0.55;0.30;;;11.90;47.00;;;;;;4981795;28;20030;-83
2022/05/04 07:22:43;;;;;;;1.05;0.38;;;11.90;48.30;;;;;;4984575;28;20026;-81
2022/05/04 07:25:10;;;;;;;1.15;0.40;;;11.80;45.90;;;;;;4981577;28;20104;-83
2022/05/04 07:27:36;;;;;;;0.68;0.40;;;11.60;46.80;;;;;;4987532;28;20512;-84
2022/05/04 07:30:02;;;;;;;0.35;0.30;;;11.40;46.90;;;;;;4983292;28;20034;-83
2022/05/04 07:32:27;;;;;;;0.60;0.40;;;11.30;46.20;;;;;;4976733;28;20478;-79
2022/05/04 07:34:53;;;;;;;0.43;0.40;;;11.20;47.40;;;;;;4987152;28;20101;-72
2022/05/04 07:37:18;;;;;;;13.32;1.20;;;11.10;46.90;;;;;;4991559;28;20074;-71
2022/05/04 07:42:29;;;;;;;5.35;0.60;;;12.40;58.60;;;;;;4974050;28;20088;-74
2022/05/04 07:44:57;;;;;;;0.50;0.30;;;12.70;51.40;;;;;;4977987;28;20026;-71
2022/05/04 07:47:23;;;;;;;0.95;0.40;;;12.40;46.70;;;;;;4992860;28;20026;-73
2022/05/04 07:49:49;;;;;;;0.45;0.30;;;12.20;47.20;;;;;;4992840;28;20018;-73
2022/05/04 07:52:15;;;;;;;0.90;0.40;;;11.80;45.80;;;;;;4993090;28;20493;-73
2022/05/04 07:54:41;;;;;;;2.88;0.50;;;11.50;46.10;;;;;;4992856;28;20559;-73
2022/05/04 07:57:08;;;;;;;1.35;0.30;;;11.10;45.80;;;;;;4975459;28;20073;-73
2022/05/04 07:59:34;;;;;;;0.73;0.40;;;10.70;45.40;;;;;;4992717;28;20049;-73
2022/05/04 08:04:44;;;;;;;0.45;0.40;;;10.10;45.40;;;;;;4992735;28;20081;-73
2022/05/04 08:07:10;;;;;;;2.97;0.50;;;10.00;45.90;;;;;;4992375;28;20018;-73
2022/05/04 08:09:36;;;;;;;1.50;0.68;;;9.90;46.00;;;;;;4992084;28;20039;-73
2022/05/04 08:12:08;;;;;;;2.28;0.40;;;9.80;45.90;;;;;;4992234;28;20026;-73
2022/05/04 08:14:34;;;;;;;3.97;0.75;;;9.80;45.60;;;;;;4992248;28;20497;-73
2022/05/04 08:17:01;;;;;;;1.35;0.60;;;9.80;45.40;;;;;;4992693;28;20078;-73
2022/05/04 08:19:26;;;;;;;2.80;0.40;;;9.80;45.30;;;;;;4992665;28;20022;-73
2022/05/04 08:21:52;;;;;;;2.03;0.50;;;9.70;45.00;;;;;;4992473;28;20512;-73
2022/05/04 08:24:18;;;;;;;3.13;0.55;;;9.60;45.20;;;;;;4992020;28;20497;-73
2022/05/04 08:26:44;;;;;;;0.65;0.30;;;9.80;45.10;;;;;;4991917;28;20034;-73
2022/05/04 08:29:10;;;;;;;2.25;0.43;;;9.70;44.50;;;;;;4992468;28;20363;-73
2022/05/04 08:31:36;;;;;;;2.35;0.60;;;9.70;44.20;;;;;;4992371;28;20048;-73
2022/05/04 08:34:02;;;;;;;1.13;0.52;;;9.70;44.20;;;;;;4992203;28;20018;-73
2022/05/04 08:36:28;;;;;;;2.05;0.40;;;9.70;44.10;;;;;;4991877;28;20529;-73
2022/05/04 08:38:53;;;;;;;2.55;0.50;;;9.80;44.40;;;;;;4988210;28;20052;-73
2022/05/04 08:41:22;;;;;;;5.75;0.50;;;9.70;44.10;;;;;;4992728;28;20058;-73
2022/05/04 08:43:50;;;;;;;8.77;0.80;;;9.70;44.30;;;;;;4992047;28;20018;-73
2022/05/04 08:46:17;;;;;;;2.08;0.55;;;9.80;44.60;;;;;;4992660;28;20089;-73
2022/05/04 08:48:43;;;;;;;3.50;0.45;;;9.80;44.60;;;;;;4992223;28;20097;-73
2022/05/04 08:51:10;;;;;;;2.17;0.38;;;9.70;44.40;;;;;;4992708;28;20031;-73
2022/05/04 08:53:37;;;;;;;3.42;0.60;;;9.50;44.40;;;;;;4992319;28;20041;-73
2022/05/04 08:56:03;;;;;;;18.95;1.00;;;9.40;44.20;;;;;;4990920;28;20033;-72
2022/05/04 08:58:30;;;;;;;1.95;0.80;;;9.40;44.90;;;;;;4991626;28;20030;-72
2022/05/04 09:00:57;;;;;;;3.63;0.47;;;9.60;45.50;;;;;;4992505;28;20022;-73
2022/05/04 09:03:23;;;;;;;1.48;0.60;;;9.70;45.10;;;;;;4996037;28;20049;-73
2022/05/04 09:05:53;;;;;;;0.75;0.68;;;9.80;45.20;;;;;;4994609;28;20026;-73
2022/05/04 09:08:19;;;;;;;;;;;9.70;44.70;;;;;;4996497;28;20026;-73
2022/05/04 09:10:45;;;;;;;18.90;2.13;;;9.70;44.20;;;;;;4995879;28;20357;-73
2022/05/04 09:13:11;;;;;;;1.05;0.40;;;9.70;44.10;;;;;;4994743;28;20121;-73
2022/05/04 09:15:40;;;;;;;0.47;0.47;;;9.80;44.90;;;;;;4995856;28;20121;-73
2022/05/04 09:18:13;;;;;;;2.58;0.60;;;9.80;44.40;;;;;;4995877;28;20102;-73
2022/05/04 09:20:57;;;;;;;5.53;0.63;;;9.80;44.30;;;;;;4994337;28;20504;-73
2022/05/04 09:23:32;;;;;;;3.35;0.40;;;9.70;44.10;;;;;;4995631;28;20033;-73
2022/05/04 09:26:05;;;;;;;2.30;0.90;;;9.80;44.50;;;;;;4985447;28;20038;-73
2022/05/04 09:28:32;;;;;;;2.83;0.50;;;9.80;43.60;;;;;;4995396;28;20023;-73
2022/05/04 09:31:08;;;;;;;0.75;0.30;;;9.80;43.00;;;;;;4995729;28;20023;-73
2022/05/04 09:33:37;;;;;;;1.02;0.40;;;9.80;43.30;;;;;;4995412;28;20052;-73
2022/05/04 09:36:03;;;;;;;0.88;0.40;;;9.80;43.60;;;;;;4995064;28;20038;-73
2022/05/04 09:46:52;;;;;;;1.00;0.50;;;9.90;43.20;;;;;;4995813;28;20034;-73
2022/05/04 09:49:19;;;;;;;3.03;0.40;;;9.70;43.00;;;;;;4995164;28;20026;-73
2022/05/04 09:51:53;;;;;;;6.38;0.63;;;9.70;43.10;;;;;;4995339;28;20035;-73
2022/05/04 09:54:27;;;;;;;0.70;0.40;;;9.60;43.40;;;;;;4995176;28;20022;-73
2022/05/04 09:56:57;;;;;;;11.73;0.60;;;9.60;43.10;;;;;;4993821;28;20038;-73
2022/05/04 09:59:31;;;;;;;4.60;0.60;;;9.40;43.60;;;;;;4995186;28;20061;-73
2022/05/04 10:02:02;;;;;;;3.60;0.45;;;9.30;43.90;;;;;;4995101;28;20022;-73
2022/05/04 10:04:28;;;;;;;1.85;0.32;;;9.30;44.00;;;;;;4994974;28;20023;-73
2022/05/04 10:06:55;;;;;;;0.60;0.40;;;9.30;43.90;;;;;;4995329;28;20109;-73
2022/05/04 10:09:22;;;;;;;2.17;0.47;;;9.20;44.10;;;;;;4994792;28;20018;-73
2022/05/04 10:11:57;;;;;;;60.28;2.47;;;9.20;44.60;;;;;;4976570;28;20436;-72
2022/05/04 10:14:24;;;;;;;12.60;1.17;;;9.30;45.50;;;;;;4992957;28;20045;-72
2022/05/04 10:16:51;;;;;;;0.57;0.40;;;9.80;47.60;;;;;;4994485;28;20046;-72
2022/05/04 10:19:36;;;;;;;3.42;0.43;;;9.80;45.00;;;;;;4994671;28;20022;-72
2022/05/04 10:22:08;;;;;;;3.40;0.63;;;9.50;44.50;;;;;;4994586;28;20049;-72
2022/05/04 10:24:36;;;;;;;4.72;0.50;;;9.30;44.90;;;;;;4998927;28;20034;-73
2022/05/04 10:27:15;;;;;;;0.88;0.52;;;9.20;45.30;;;;;;4993380;28;20065;-74
2022/05/04 10:32:28;;;;;;;0.75;0.40;;;9.10;44.90;;;;;;4994774;28;20093;-74
2022/05/04 10:35:20;;;;;;;5.68;0.50;;;9.10;44.80;;;;;;4994572;28;20093;-77
2022/05/04 10:37:57;;;;;;;2.03;0.43;;;9.10;45.90;;;;;;4992810;28;20081;-77
2022/05/04 10:40:33;;;;;;;4.20;0.40;;;9.30;45.80;;;;;;4994274;28;20018;-76
2022/05/04 10:43:00;;;;;;;0.40;0.40;;;9.40;45.00;;;;;;4994390;28;20079;-76
2022/05/04 10:45:30;;;;;;;3.13;0.40;;;9.30;44.20;;;;;;4994110;28;20422;-76
2022/05/04 10:48:20;;;;;;;2.47;0.40;;;9.40;45.30;;;;;;4994078;28;20022;-75
2022/05/04 10:50:47;;;;;;;1.30;0.30;;;9.60;44.90;;;;;;4993893;28;20050;-75
2022/05/04 10:53:21;;;;;;;0.43;0.35;;;9.80;44.70;;;;;;4994092;28;20038;-75
2022/05/04 10:56:01;;;;;;;1.02;0.43;;;9.90;44.90;;;;;;4992503;28;20445;-75
2022/05/04 10:58:44;;;;;;;40.85;2.42;;;10.10;44.60;;;;;;4994224;28;20401;-75
2022/05/04 11:01:12;;;;;;;1.05;0.40;;;10.20;43.90;;;;;;4994255;28;20388;-75
2022/05/04 11:03:50;;;;;;;2.08;0.50;;;10.30;43.60;;;;;;4994121;28;20355;-75
2022/05/04 11:06:46;;;;;;;10.63;1.25;;;10.40;43.50;;;;;;4994058;28;20041;-75
2022/05/04 11:09:13;;;;;;;2.75;0.40;;;10.40;42.80;;;;;;4991343;28;20129;-75
2022/05/04 11:11:50;;;;;;;1.02;0.50;;;10.30;42.20;;;;;;4993667;28;20481;-74
2022/05/04 11:14:23;;;;;;;0.73;0.40;;;10.20;42.20;;;;;;4993686;28;20023;-74
2022/05/04 11:16:51;;;;;;;2.65;0.50;;;9.80;42.00;;;;;;4993600;28;20037;-77
2022/05/04 11:19:17;;;;;;;0.60;0.38;;;9.80;43.10;;;;;;4993634;28;20377;-76
2022/05/04 11:21:43;;;;;;;4.60;0.70;;;9.90;43.40;;;;;;4993488;28;20109;-76
2022/05/04 11:24:12;;;;;;;1.15;0.52;;;10.00;43.30;;;;;;4993063;28;20110;-78
2022/05/04 11:26:42;;;;;;;1.85;0.65;;;9.90;43.40;;;;;;4993264;28;20041;-77
2022/05/04 11:29:14;;;;;;;1.90;0.57;;;9.80;43.40;;;;;;4993404;28;20489;-79
2022/05/04 11:31:47;;;;;;;3.63;0.40;;;9.70;43.40;;;;;;4991882;28;20034;-79
2022/05/04 11:34:16;;;;;;;2.50;0.38;;;9.60;43.50;;;;;;4993244;28;20060;-78
2022/05/04 11:36:44;;;;;;;1.97;0.50;;;9.60;43.50;;;;;;4993058;28;20046;-78
2022/05/04 11:39:15;;;;;;;0.30;0.30;;;9.50;43.70;;;;;;5031567;28;20084;-78
2022/05/04 11:41:45;;;;;;;3.10;0.43;;;9.50;44.20;;;;;;5032631;28;20036;-77
2022/05/04 11:44:12;;;;;;;1.25;0.40;;;9.60;44.10;;;;;;5015592;28;20424;-77
2022/05/04 11:46:38;;;;;;;5.57;0.55;;;9.60;43.30;;;;;;5012402;28;20492;-75
2022/05/04 11:49:10;;;;;;;0.63;0.40;;;9.80;51.40;;;;;;5012257;28;20469;-75
2022/05/04 11:51:36;;;;;;;0.40;0.40;;;10.40;48.80;;;;;;5012299;28;20026;-74
2022/05/04 11:54:03;;;;;;;0.68;0.30;;;10.10;43.40;;;;;;5012152;28;20057;-75
2022/05/04 11:56:29;;;;;;;0.32;0.30;;;9.90;43.20;;;;;;5012285;28;20036;-74
2022/05/04 11:58:55;;;;;;;0.65;0.43;;;9.80;43.70;;;;;;4994340;28;20029;-74
2022/05/04 12:01:21;;;;;;;1.40;0.50;;;9.80;44.40;;;;;;5012054;28;20022;-74
2022/05/04 12:03:47;;;;;;;2.42;0.50;;;9.90;44.70;;;;;;5012237;28;20393;-74
2022/05/04 12:06:13;;;;;;;0.60;0.32;;;10.00;44.20;;;;;;5012129;28;20037;-74
2022/05/04 12:08:41;;;;;;;1.63;0.60;;;10.10;43.60;;;;;;4994574;28;20117;-75
2022/05/04 12:11:08;;;;;;;1.23;0.40;;;10.20;43.60;;;;;;5012386;28;20033;-74
2022/05/04 12:13:38;;;;;;;6.82;0.50;;;10.10;42.80;;;;;;5012344;28;20022;-74
2022/05/04 12:16:06;;;;;;;0.43;0.40;;;10.10;42.90;;;;;;5012027;28;20030;-74
2022/05/04 12:18:33;;;;;;;2.83;1.00;;;10.20;43.00;;;;;;5012032;28;20025;-74
2022/05/04 12:21:14;;;;;;;9.48;0.98;;;10.30;45.90;;;;;;5012231;28;20029;-74
2022/05/04 12:23:43;;;;;;;2.08;0.30;;;10.60;43.50;;;;;;5011565;28;20029;-78
2022/05/04 12:26:11;;;;;;;0.60;0.40;;;10.40;43.00;;;;;;5014100;28;20022;-77
2022/05/04 12:28:38;;;;;;;2.25;0.50;;;10.20;42.80;;;;;;5011942;28;20474;-72
2022/05/04 12:34:13;;;;;;;1.25;0.50;;;10.00;42.70;;;;;;4952171;29;20132;-71
2022/05/04 12:36:39;;;;;;;2.25;0.30;;;10.20;44.20;;;;;;4950445;29;20449;-72
2022/05/04 12:39:04;;;;;;;0.95;0.40;;;10.30;43.50;;;;;;4969252;28;20538;-74
2022/05/04 12:41:31;;;;;;;6.57;0.70;;;10.30;43.10;;;;;;4992558;28;20390;-75
2022/05/04 12:43:56;;;;;;;1.30;0.30;;;10.40;43.70;;;;;;4991146;28;20386;-75
2022/05/04 12:46:22;;;;;;;1.38;0.40;;;10.40;43.00;;;;;;4992017;28;20029;-75
2022/05/04 12:48:49;;;;;;;2.08;0.50;;;10.30;42.50;;;;;;4992699;28;20529;-72
2022/05/04 12:51:17;;;;;;;8.27;0.55;;;10.20;42.80;;;;;;4992067;28;20105;-75
2022/05/04 12:53:47;;;;;;;0.45;0.40;;;10.30;43.00;;;;;;4992242;28;20039;-73
2022/05/04 12:59:01;;;;;;;3.25;0.40;;;10.20;42.70;;;;;;4992539;28;20397;-74
2022/05/04 13:01:28;;;;;;;4.05;0.40;;;10.30;42.80;;;;;;4992299;28;20478;-73
2022/05/04 13:03:54;;;;;;;0.65;0.43;;;10.30;42.00;;;;;;4992039;28;20062;-71
2022/05/04 13:06:22;;;;;;;1.05;0.32;;;10.40;42.00;;;;;;4991928;28;20061;-71
2022/05/04 13:08:48;;;;;;;3.28;0.85;;;10.40;41.10;;;;;;4992106;28;20397;-70
2022/05/04 13:11:15;;;;;;;0.95;0.47;;;10.30;41.20;;;;;;4991996;28;20029;-70
2022/05/04 13:13:41;;;;;;;0.55;0.40;;;10.30;41.70;;;;;;4991846;28;20030;-70
2022/05/04 13:16:07;;;;;;;0.32;0.30;;;10.30;41.70;;;;;;4992094;28;20041;-69
2022/05/04 13:18:32;;;;;;;3.72;0.30;;;10.30;41.70;;;;;;4991831;28;20474;-69
2022/05/04 13:20:58;;;;;;;0.50;0.30;;;10.20;41.80;;;;;;4991429;28;20066;-69
2022/05/04 13:23:24;;;;;;;1.20;0.32;;;10.30;42.00;;;;;;4991378;28;20022;-69
2022/05/04 13:25:50;;;;;;;2.83;0.50;;;10.30;41.90;;;;;;4991386;28;20509;-69
2022/05/04 13:28:15;;;;;;;2.03;0.50;;;10.40;42.00;;;;;;4988129;28;20512;-73
2022/05/04 13:30:42;;;;;;;1.88;0.40;;;10.40;42.00;;;;;;4991345;28;20106;-73
2022/05/04 13:33:08;;;;;;;5.88;0.60;;;10.40;41.70;;;;;;4991993;28;20647;-73
2022/05/04 13:35:33;;;;;;;1.65;0.40;;;10.30;41.70;;;;;;4991859;28;20038;-68
2022/05/04 13:38:00;;;;;;;0.75;0.43;;;10.30;41.70;;;;;;4991120;28;20096;-69
2022/05/04 13:40:26;;;;;;;2.85;0.60;;;10.40;41.90;;;;;;4991856;28;20022;-69
2022/05/04 13:42:53;;;;;;;0.82;0.50;;;10.40;41.80;;;;;;4991896;28;20034;-69
2022/05/04 13:45:19;;;;;;;5.10;0.70;;;10.40;41.80;;;;;;4992077;28;20045;-69
2022/05/04 13:47:45;;;;;;;1.08;0.40;;;10.40;41.90;;;;;;4994331;28;20040;-68
2022/05/04 13:53:14;;;;;;;1.95;0.40;;;10.40;41.70;;;;;;4995491;28;20081;-69
2022/05/04 13:55:48;;;;;;;4.40;0.38;;;10.30;41.90;;;;;;4994488;28;20045;-68
2022/05/04 13:58:19;;;;;;;30.70;1.58;;;10.30;42.10;;;;;;4992877;28;20037;-69
2022/05/04 14:00:46;;;;;;;3.30;0.50;;;10.20;41.60;;;;;;4994446;28;20026;-70
2022/05/04 14:03:12;;;;;;;2.50;0.45;;;10.20;42.10;;;;;;4994657;28;20025;-71
2022/05/04 14:05:38;;;;;;;1.40;0.60;;;10.20;42.30;;;;;;4995025;28;20148;-71
2022/05/04 14:08:05;;;;;;;8.75;1.33;;;10.10;42.00;;;;;;4994639;28;20486;-69
2022/05/04 14:10:31;;;;;;;3.88;0.70;;;10.10;42.20;;;;;;4994935;28;20509;-69
2022/05/04 14:13:00;;;;;;;12.18;2.67;;;10.20;42.40;;;;;;4976148;28;20035;-69
2022/05/04 14:15:27;;;;;;;14.63;0.88;;;10.20;42.20;;;;;;4990748;28;20034;-69
2022/05/04 14:17:53;;;;;;;2.17;0.50;;;10.20;42.50;;;;;;4992794;28;20401;-68
2022/05/04 14:20:19;;;;;;;9.63;0.75;;;10.20;42.00;;;;;;4993609;28;20030;-70
2022/05/04 14:22:45;;;;;;;4.25;0.90;;;10.10;41.90;;;;;;4993749;28;20026;-71
2022/05/04 14:25:11;;;;;;;7.47;0.70;;;10.10;42.60;;;;;;4993898;28;20076;-70
2022/05/04 14:27:37;;;;;;;3.80;0.40;;;10.20;42.30;;;;;;4994193;28;20017;-71
2022/05/04 14:30:04;;;;;;;14.00;1.42;;;10.20;42.10;;;;;;4994079;28;20018;-71